createdAt,value
2022-08-26T00:01:18.698Z,26.00
2022-08-26T00:03:56.384Z,20.92
2022-08-26T00:06:23.016Z,25.73
2022-08-26T00:08:49.481Z,21.40
2022-08-26T00:11:15.947Z,22.02
2022-08-26T00:13:54.481Z,27.15
2022-08-26T00:16:21.582Z,24.92
2022-08-26T00:18:48.099Z,23.50
2022-08-26T00:21:14.534Z,29.35
2022-08-26T00:23:41.005Z,24.65
2022-08-26T00:26:08.323Z,29.02
2022-08-26T00:28:35.444Z,25.20
2022-08-26T00:31:02.561Z,25.27
2022-08-26T00:33:29.956Z,30.50
2022-08-26T00:35:56.914Z,26.63
2022-08-26T00:38:23.865Z,26.48
2022-08-26T00:40:55.641Z,25.92
2022-08-26T00:43:24.425Z,28.23
2022-08-26T00:46:14.182Z,26.63
2022-08-26T00:48:43.921Z,25.00
2022-08-26T00:51:21.240Z,24.67
2022-08-26T00:53:54.377Z,26.23
2022-08-26T00:56:31.220Z,23.30
2022-08-26T00:59:00.933Z,24.33
2022-08-26T01:01:28.341Z,26.73
2022-08-26T01:03:59.072Z,26.80
2022-08-26T01:06:27.281Z,25.45
2022-08-26T01:08:54.424Z,25.45
2022-08-26T01:11:20.935Z,26.50
2022-08-26T01:13:49.144Z,24.13
2022-08-26T01:16:16.899Z,31.25
2022-08-26T01:18:44.641Z,25.73
2022-08-26T01:21:27.602Z,23.63
2022-08-26T01:23:57.912Z,29.73
2022-08-26T01:26:33.294Z,25.48
2022-08-26T01:29:02.925Z,28.40
2022-08-26T01:31:37.377Z,28.33
2022-08-26T01:34:14.620Z,30.05
2022-08-26T01:36:41.636Z,27.48
2022-08-26T01:39:09.219Z,27.65
2022-08-26T01:41:39.615Z,24.35
2022-08-26T01:44:09.693Z,25.75
2022-08-26T01:46:37.179Z,28.23
2022-08-26T01:49:06.748Z,24.65
2022-08-26T01:54:06.170Z,28.83
2022-08-26T01:56:36.660Z,26.73
2022-08-26T02:01:32.254Z,24.80
2022-08-26T02:04:29.272Z,27.13
2022-08-26T02:06:57.348Z,25.55
2022-08-26T02:09:25.742Z,33.92
2022-08-26T02:11:54.052Z,26.67
2022-08-26T02:14:30.344Z,28.67
2022-08-26T02:16:56.909Z,33.72
2022-08-26T02:19:29.203Z,28.58
2022-08-26T02:21:58.522Z,25.70
2022-08-26T02:24:28.638Z,69.72
2022-08-26T02:26:57.541Z,47.35
2022-08-26T02:29:32.828Z,33.03
2022-08-26T02:31:59.311Z,27.70
2022-08-26T02:34:32.681Z,31.67
2022-08-26T02:37:01.150Z,26.42
2022-08-26T02:39:29.435Z,27.88
2022-08-26T02:41:57.517Z,27.63
2022-08-26T02:44:24.006Z,24.38
2022-08-26T02:46:52.760Z,26.65
2022-08-26T02:49:21.490Z,28.67
2022-08-26T02:51:49.440Z,26.10
2022-08-26T02:54:17.219Z,26.27
2022-08-26T02:56:44.420Z,26.27
2022-08-26T02:59:12.576Z,26.40
2022-08-26T03:01:40.421Z,28.27
2022-08-26T03:04:09.879Z,26.90
2022-08-26T03:06:37.878Z,26.73
2022-08-26T03:09:05.523Z,31.15
2022-08-26T03:11:33.268Z,27.77
2022-08-26T03:14:00.599Z,26.58
2022-08-26T03:16:37.231Z,25.17
2022-08-26T03:19:06.505Z,29.70
2022-08-26T03:21:35.533Z,26.80
2022-08-26T03:24:03.304Z,28.35
2022-08-26T03:26:30.499Z,27.33
2022-08-26T03:29:15.663Z,28.73
2022-08-26T03:31:43.369Z,27.70
2022-08-26T03:34:09.761Z,32.30
2022-08-26T03:36:38.612Z,26.02
2022-08-26T03:39:06.285Z,26.55
2022-08-26T03:41:36.594Z,29.33
2022-08-26T03:44:05.676Z,28.25
2022-08-26T03:46:33.657Z,31.98
2022-08-26T03:49:02.067Z,29.35
2022-08-26T03:51:29.047Z,29.50
2022-08-26T03:53:55.966Z,30.45
2022-08-26T03:56:23.615Z,29.13
2022-08-26T03:58:50.906Z,31.38
2022-08-26T04:01:17.810Z,28.77
2022-08-26T04:04:00.392Z,28.60
2022-08-26T04:06:44.963Z,28.35
2022-08-26T04:09:18.477Z,28.98
2022-08-26T04:11:47.494Z,29.40
2022-08-26T04:14:20.491Z,34.63
2022-08-26T04:16:47.592Z,26.43
2022-08-26T04:19:15.644Z,28.02
2022-08-26T04:21:42.857Z,28.90
2022-08-26T04:24:12.086Z,29.42
2022-08-26T04:26:42.756Z,33.30
2022-08-26T04:29:23.668Z,27.63
2022-08-26T04:31:50.422Z,29.07
2022-08-26T04:34:23.469Z,28.90
2022-08-26T04:36:51.330Z,27.48
2022-08-26T04:39:20.169Z,28.80
2022-08-26T04:41:48.528Z,36.22
2022-08-26T04:44:16.019Z,25.25
2022-08-26T04:46:44.198Z,29.15
2022-08-26T04:49:11.789Z,29.65
2022-08-26T04:51:39.049Z,28.08
2022-08-26T04:54:07.045Z,33.92
2022-08-26T04:56:36.958Z,29.92
2022-08-26T04:59:06.494Z,38.77
2022-08-26T05:01:34.936Z,33.05
2022-08-26T05:04:08.177Z,29.95
2022-08-26T05:06:36.974Z,39.17
2022-08-26T05:09:04.070Z,30.17
2022-08-26T05:11:30.894Z,34.67
2022-08-26T05:14:01.634Z,38.65
2022-08-26T05:16:30.311Z,36.65
2022-08-26T05:18:57.446Z,30.55
2022-08-26T05:21:27.072Z,33.50
2022-08-26T05:23:54.914Z,31.55
2022-08-26T05:26:25.794Z,31.67
2022-08-26T05:28:54.602Z,33.58
2022-08-26T05:31:31.250Z,32.22
2022-08-26T05:33:58.873Z,33.42
2022-08-26T05:36:29.565Z,39.33
2022-08-26T05:38:57.742Z,30.58
2022-08-26T05:41:36.195Z,32.42
2022-08-26T05:44:05.872Z,35.40
2022-08-26T05:46:33.501Z,33.30
2022-08-26T05:49:01.539Z,31.88
2022-08-26T05:51:30.450Z,36.90
2022-08-26T05:53:57.912Z,37.75
2022-08-26T05:56:26.065Z,37.78
2022-08-26T05:58:52.612Z,32.63
2022-08-26T06:01:21.897Z,33.13
2022-08-26T06:03:51.998Z,30.38
2022-08-26T06:06:27.584Z,34.13
2022-08-26T06:08:59.258Z,34.00
2022-08-26T06:11:27.580Z,33.50
2022-08-26T06:13:57.969Z,36.17
2022-08-26T06:16:29.024Z,33.80
2022-08-26T06:18:55.882Z,34.50
2022-08-26T06:21:27.036Z,27.20
2022-08-26T06:24:16.220Z,26.52
2022-08-26T06:26:50.661Z,31.05
2022-08-26T06:29:24.717Z,24.65
2022-08-26T06:31:52.630Z,22.65
2022-08-26T06:34:19.569Z,26.98
2022-08-26T06:36:47.271Z,25.38
2022-08-26T06:39:15.569Z,26.70
2022-08-26T06:41:44.991Z,22.67
2022-08-26T06:44:13.728Z,27.13
2022-08-26T06:46:41.040Z,24.73
2022-08-26T06:49:08.210Z,22.75
2022-08-26T06:51:36.861Z,24.08
2022-08-26T06:54:05.477Z,22.40
2022-08-26T06:56:40.398Z,27.52
2022-08-26T06:59:08.230Z,26.60
2022-08-26T07:01:38.496Z,23.88
2022-08-26T07:04:10.727Z,31.52
2022-08-26T07:06:40.576Z,21.38
2022-08-26T07:09:09.719Z,21.08
2022-08-26T07:11:38.103Z,19.05
2022-08-26T07:14:04.982Z,16.08
2022-08-26T07:16:31.765Z,25.08
2022-08-26T07:18:59.465Z,16.58
2022-08-26T07:21:27.988Z,21.83
2022-08-26T07:24:00.071Z,19.88
2022-08-26T07:26:30.637Z,12.52
2022-08-26T07:28:58.494Z,16.83
2022-08-26T07:31:28.381Z,14.75
2022-08-26T07:33:56.741Z,15.77
2022-08-26T07:36:24.377Z,15.80
2022-08-26T07:38:52.434Z,15.88
2022-08-26T07:41:22.716Z,17.05
2022-08-26T07:43:49.605Z,18.38
2022-08-26T07:46:20.854Z,16.27
2022-08-26T07:48:54.058Z,20.77
2022-08-26T07:51:22.081Z,18.08
2022-08-26T07:53:52.339Z,15.20
2022-08-26T07:58:48.978Z,15.80
2022-08-26T08:01:18.701Z,13.75
2022-08-26T08:03:45.355Z,19.45
2022-08-26T08:06:12.400Z,16.05
2022-08-26T08:08:41.309Z,20.33
2022-08-26T08:11:07.952Z,18.40
2022-08-26T08:13:37.366Z,19.02
2022-08-26T08:16:04.968Z,11.35
2022-08-26T08:18:31.647Z,16.77
2022-08-26T08:21:21.330Z,19.45
2022-08-26T08:23:46.927Z,19.73
2022-08-26T08:26:14.090Z,18.60
2022-08-26T08:28:40.764Z,16.63
2022-08-26T08:31:08.263Z,14.77
2022-08-26T08:33:35.238Z,18.23
2022-08-26T08:36:02.185Z,15.07
2022-08-26T08:38:29.510Z,18.30
2022-08-26T08:40:56.031Z,18.38
2022-08-26T08:43:44.412Z,16.55
2022-08-26T08:46:14.024Z,17.65
2022-08-26T08:48:48.338Z,14.90
2022-08-26T08:51:35.961Z,15.23
2022-08-26T08:54:02.722Z,17.33
2022-08-26T08:56:33.643Z,13.25
2022-08-26T08:59:19.587Z,12.90
2022-08-26T09:01:59.033Z,14.82
2022-08-26T09:04:45.130Z,13.50
2022-08-26T09:07:25.657Z,15.20
2022-08-26T09:10:00.808Z,14.02
2022-08-26T09:12:32.827Z,17.92
2022-08-26T09:15:28.563Z,15.52
2022-08-26T09:18:11.062Z,13.32
2022-08-26T09:20:58.134Z,15.65
2022-08-26T09:23:25.419Z,15.57
2022-08-26T09:26:02.958Z,14.00
2022-08-26T09:28:31.085Z,11.10
2022-08-26T09:31:11.437Z,9.07
2022-08-26T09:33:40.185Z,11.90
2022-08-26T09:36:37.785Z,15.65
2022-08-26T09:39:24.092Z,14.48
2022-08-26T09:42:12.764Z,18.42
2022-08-26T09:44:52.658Z,12.55
2022-08-26T09:47:30.220Z,15.45
2022-08-26T09:50:30.740Z,11.98
2022-08-26T09:53:12.658Z,16.83
2022-08-26T09:55:42.689Z,16.20
2022-08-26T09:58:31.024Z,19.43
2022-08-26T10:03:34.332Z,13.88
2022-08-26T10:06:04.955Z,14.10
2022-08-26T10:08:42.362Z,14.82
2022-08-26T10:11:38.306Z,22.02
2022-08-26T10:14:27.883Z,12.10
2022-08-26T10:17:00.812Z,16.67
2022-08-26T10:19:55.932Z,13.30
2022-08-26T10:22:46.893Z,13.15
2022-08-26T10:25:20.178Z,12.05
2022-08-26T10:28:05.623Z,9.75
2022-08-26T10:30:38.557Z,10.15
2022-08-26T10:33:12.345Z,10.40
2022-08-26T10:35:48.529Z,9.70
2022-08-26T10:38:22.525Z,10.43
2022-08-26T10:40:55.061Z,8.45
2022-08-26T10:43:29.623Z,9.38
2022-08-26T10:46:11.982Z,9.05
2022-08-26T10:48:45.566Z,11.70
2022-08-26T10:51:15.114Z,10.60
2022-08-26T10:53:55.797Z,8.80
2022-08-26T10:56:28.477Z,11.20
2022-08-26T10:59:18.025Z,7.43
2022-08-26T11:01:57.599Z,7.63
2022-08-26T11:04:48.352Z,7.18
2022-08-26T11:07:57.179Z,8.13
2022-08-26T11:10:23.634Z,8.85
2022-08-26T11:13:04.969Z,9.48
2022-08-26T11:15:31.373Z,7.00
2022-08-26T11:18:37.359Z,9.75
2022-08-26T11:21:40.133Z,18.63
2022-08-26T11:24:08.153Z,7.55
2022-08-26T11:26:55.725Z,9.23
2022-08-26T11:29:56.821Z,7.03
2022-08-26T11:32:26.875Z,4.80
2022-08-26T11:34:59.306Z,4.90
2022-08-26T11:37:35.072Z,4.63
2022-08-26T11:40:06.429Z,5.45
2022-08-26T11:42:37.240Z,8.40
2022-08-26T11:45:19.332Z,7.22
2022-08-26T11:47:46.798Z,9.77
2022-08-26T11:50:19.220Z,8.25
2022-08-26T11:53:07.686Z,9.48
2022-08-26T11:55:41.751Z,7.82
2022-08-26T11:58:12.751Z,5.93
2022-08-26T12:00:57.354Z,10.02
2022-08-26T12:03:32.240Z,6.45
2022-08-26T12:05:59.173Z,8.38
2022-08-26T12:08:28.503Z,9.93
2022-08-26T12:11:13.699Z,8.90
2022-08-26T12:13:42.170Z,7.15
2022-08-26T12:16:09.509Z,6.70
2022-08-26T12:18:38.884Z,7.78
2022-08-26T12:21:34.853Z,4.78
2022-08-26T12:24:03.979Z,10.32
2022-08-26T12:26:35.344Z,8.48
2022-08-26T12:29:10.033Z,6.05
2022-08-26T12:31:47.887Z,9.70
2022-08-26T12:34:18.114Z,6.32
2022-08-26T12:36:49.585Z,6.57
2022-08-26T12:39:29.747Z,6.28
2022-08-26T12:41:59.057Z,4.75
2022-08-26T12:44:32.429Z,6.33
2022-08-26T12:47:15.857Z,5.13
2022-08-26T12:50:09.544Z,8.95
2022-08-26T12:52:51.432Z,5.43
2022-08-26T12:55:22.791Z,13.02
2022-08-26T12:57:49.339Z,6.75
2022-08-26T13:00:34.920Z,5.55
2022-08-26T13:03:02.536Z,6.50
2022-08-26T13:05:33.248Z,10.13
2022-08-26T13:08:24.998Z,9.05
2022-08-26T13:11:04.604Z,11.05
2022-08-26T13:13:31.289Z,5.13
2022-08-26T13:15:57.775Z,9.13
2022-08-26T13:18:25.531Z,6.00
2022-08-26T13:20:52.612Z,8.38
2022-08-26T13:23:21.361Z,9.38
2022-08-26T13:25:47.784Z,5.45
2022-08-26T13:28:14.304Z,6.18
2022-08-26T13:30:44.287Z,8.45
2022-08-26T13:33:12.286Z,7.88
2022-08-26T13:35:41.107Z,5.35
2022-08-26T13:38:14.545Z,8.15
2022-08-26T13:40:59.680Z,11.63
2022-08-26T13:43:27.622Z,7.82
2022-08-26T13:45:54.571Z,5.18
2022-08-26T13:48:23.315Z,8.43
2022-08-26T13:50:50.633Z,6.97
2022-08-26T13:53:18.654Z,6.35
2022-08-26T13:55:45.751Z,8.60
2022-08-26T13:58:13.535Z,4.95
2022-08-26T14:00:41.289Z,7.10
2022-08-26T14:03:12.700Z,7.32
2022-08-26T14:05:40.508Z,6.22
2022-08-26T14:08:07.565Z,7.07
2022-08-26T14:10:34.252Z,7.55
2022-08-26T14:13:00.850Z,19.08
2022-08-26T14:15:27.961Z,10.13
2022-08-26T14:17:55.896Z,8.50
2022-08-26T14:20:29.526Z,9.27
2022-08-26T14:23:14.132Z,7.07
2022-08-26T14:25:41.038Z,5.28
2022-08-26T14:28:07.544Z,7.70
2022-08-26T14:30:34.476Z,9.55
2022-08-26T14:33:00.953Z,12.95
2022-08-26T14:35:30.330Z,10.35
2022-08-26T14:37:57.325Z,6.40
2022-08-26T14:40:31.179Z,7.28
2022-08-26T14:43:00.141Z,10.55
2022-08-26T14:45:27.746Z,16.88
2022-08-26T14:47:56.596Z,7.90
2022-08-26T14:50:26.068Z,6.78
2022-08-26T14:53:11.239Z,4.63
2022-08-26T14:55:42.236Z,9.93
2022-08-26T14:58:09.989Z,5.57
2022-08-26T15:00:38.153Z,5.22
2022-08-26T15:03:05.783Z,6.35
2022-08-26T15:05:33.273Z,5.35
2022-08-26T15:08:00.356Z,7.32
2022-08-26T15:10:26.847Z,8.63
2022-08-26T15:12:53.319Z,5.57
2022-08-26T15:15:19.898Z,5.78
2022-08-26T15:17:46.337Z,7.63
2022-08-26T15:20:15.846Z,8.30
2022-08-26T15:22:43.137Z,5.90
2022-08-26T15:25:10.723Z,8.90
2022-08-26T15:27:38.170Z,9.80
2022-08-26T15:30:10.658Z,5.00
2022-08-26T15:32:37.164Z,10.13
2022-08-26T15:35:08.893Z,5.95
2022-08-26T15:37:36.178Z,7.43
2022-08-26T15:40:03.748Z,6.32
2022-08-26T15:42:30.301Z,5.70
2022-08-26T15:44:56.806Z,7.80
2022-08-26T15:47:23.746Z,7.05
2022-08-26T15:49:50.220Z,8.48
2022-08-26T15:52:16.758Z,5.85
2022-08-26T15:54:43.215Z,9.75
2022-08-26T15:57:12.360Z,6.10
2022-08-26T15:59:40.142Z,8.30
2022-08-26T16:02:07.405Z,11.52
2022-08-26T16:04:34.021Z,7.05
2022-08-26T16:07:00.847Z,9.65
2022-08-26T16:09:28.682Z,6.85
2022-08-26T16:11:56.223Z,9.93
2022-08-26T16:14:23.837Z,5.93
2022-08-26T16:16:50.582Z,6.13
2022-08-26T16:19:17.805Z,10.15
2022-08-26T16:21:44.836Z,6.93
2022-08-26T16:24:11.882Z,7.65
2022-08-26T16:26:40.399Z,5.85
2022-08-26T16:29:10.311Z,5.15
2022-08-26T16:31:38.216Z,4.70
2022-08-26T16:34:06.324Z,6.45
2022-08-26T16:36:34.074Z,5.82
2022-08-26T16:39:01.057Z,5.25
2022-08-26T16:41:30.428Z,9.05
2022-08-26T16:43:57.264Z,5.87
2022-08-26T16:46:25.889Z,5.22
2022-08-26T16:48:57.180Z,3.88
2022-08-26T16:51:27.078Z,5.38
2022-08-26T16:53:55.463Z,5.45
2022-08-26T16:56:33.615Z,4.85
2022-08-26T16:59:02.083Z,3.88
2022-08-26T17:01:28.982Z,6.22
2022-08-26T17:03:55.519Z,4.43
2022-08-26T17:06:22.025Z,11.65
2022-08-26T17:08:48.507Z,4.32
2022-08-26T17:11:15.357Z,8.20
2022-08-26T17:13:42.042Z,7.53
2022-08-26T17:16:14.318Z,7.68
2022-08-26T17:18:41.401Z,8.23
2022-08-26T17:21:11.178Z,6.53
2022-08-26T17:23:38.747Z,10.13
2022-08-26T17:26:05.499Z,7.57
2022-08-26T17:28:32.449Z,8.40
2022-08-26T17:30:59.784Z,3.92
2022-08-26T17:33:26.999Z,5.10
2022-08-26T17:35:54.168Z,8.60
2022-08-26T17:38:21.608Z,9.30
2022-08-26T17:40:48.786Z,8.20
2022-08-26T17:43:15.469Z,6.53
2022-08-26T17:45:42.145Z,5.82
2022-08-26T17:48:10.492Z,6.03
2022-08-26T17:50:39.479Z,7.85
2022-08-26T17:53:05.918Z,12.88
2022-08-26T17:55:32.514Z,10.48
2022-08-26T17:57:59.831Z,8.38
2022-08-26T18:00:30.441Z,7.47
2022-08-26T18:02:57.044Z,9.60
2022-08-26T18:05:23.969Z,7.47
2022-08-26T18:07:51.417Z,8.55
2022-08-26T18:10:20.083Z,14.10
2022-08-26T18:12:46.896Z,7.90
2022-08-26T18:15:15.628Z,9.50
2022-08-26T18:17:42.537Z,14.15
2022-08-26T18:20:17.907Z,11.40
2022-08-26T18:22:45.804Z,14.63
2022-08-26T18:25:13.099Z,10.40
2022-08-26T18:27:40.269Z,7.30
2022-08-26T18:30:15.880Z,10.73
2022-08-26T18:32:42.992Z,9.25
2022-08-26T18:35:10.743Z,16.13
2022-08-26T18:37:37.495Z,7.72
2022-08-26T18:40:06.770Z,11.38
2022-08-26T18:42:33.761Z,8.20
2022-08-26T18:45:00.232Z,8.95
2022-08-26T18:47:26.772Z,6.72
2022-08-26T18:49:53.255Z,10.02
2022-08-26T18:52:19.698Z,13.07
2022-08-26T18:54:46.550Z,13.65
2022-08-26T18:57:13.015Z,15.52
2022-08-26T18:59:40.821Z,11.52
2022-08-26T19:02:08.531Z,15.82
2022-08-26T19:04:38.247Z,16.33
2022-08-26T19:07:05.607Z,10.67
2022-08-26T19:09:32.161Z,12.98
2022-08-26T19:11:59.197Z,14.65
2022-08-26T19:14:25.779Z,11.48
2022-08-26T19:16:52.967Z,10.88
2022-08-26T19:19:23.775Z,9.05
2022-08-26T19:21:51.597Z,12.60
2022-08-26T19:24:19.084Z,11.57
2022-08-26T19:26:49.473Z,10.10
2022-08-26T19:31:49.295Z,11.75
2022-08-26T19:34:20.259Z,8.10
2022-08-26T19:36:47.672Z,12.38
2022-08-26T19:39:14.296Z,12.88
2022-08-26T19:41:41.329Z,15.88
2022-08-26T19:44:34.344Z,10.25
2022-08-26T19:47:01.671Z,8.90
2022-08-26T19:49:28.166Z,12.13
2022-08-26T19:51:54.668Z,12.38
2022-08-26T19:54:22.685Z,9.20
2022-08-26T19:56:49.818Z,11.38
2022-08-26T19:59:17.370Z,16.48
2022-08-26T20:01:43.808Z,11.63
2022-08-26T20:04:10.280Z,13.15
2022-08-26T20:06:36.747Z,12.75
2022-08-26T20:09:03.851Z,15.98
2022-08-26T20:11:31.103Z,10.85
2022-08-26T20:13:57.604Z,11.18
2022-08-26T20:16:24.061Z,11.98
2022-08-26T20:19:09.057Z,12.55
2022-08-26T20:21:38.142Z,10.48
2022-08-26T20:24:15.396Z,10.52
2022-08-26T20:26:43.743Z,13.57
2022-08-26T20:29:12.152Z,16.73
2022-08-26T20:31:39.510Z,12.52
2022-08-26T20:34:06.614Z,13.32
2022-08-26T20:36:33.856Z,12.20
2022-08-26T20:39:00.643Z,15.80
2022-08-26T20:41:27.530Z,14.95
2022-08-26T20:43:54.643Z,22.50
2022-08-26T20:46:24.656Z,15.93
2022-08-26T20:51:19.124Z,17.45
2022-08-26T20:53:46.007Z,15.98
2022-08-26T20:56:14.847Z,16.42
2022-08-26T20:58:41.729Z,15.25
2022-08-26T21:01:08.968Z,17.15
2022-08-26T21:03:36.271Z,13.55
2022-08-26T21:06:03.739Z,14.40
2022-08-26T21:08:30.799Z,19.77
2022-08-26T21:11:00.024Z,19.15
2022-08-26T21:13:26.497Z,15.52
2022-08-26T21:15:56.585Z,14.52
2022-08-26T21:18:23.153Z,15.45
2022-08-26T21:20:50.187Z,17.50
2022-08-26T21:23:16.626Z,24.40
2022-08-26T21:25:43.194Z,15.60
2022-08-26T21:28:09.845Z,19.63
2022-08-26T21:30:40.749Z,18.48
2022-08-26T21:33:07.850Z,17.33
2022-08-26T21:35:34.660Z,18.35
2022-08-26T21:38:01.298Z,19.60
2022-08-26T21:40:28.059Z,18.70
2022-08-26T21:42:54.581Z,17.30
2022-08-26T21:45:21.091Z,21.45
2022-08-26T21:47:47.565Z,18.63
2022-08-26T21:50:14.022Z,20.23
2022-08-26T21:52:41.604Z,21.00
2022-08-26T21:55:11.717Z,17.50
2022-08-26T21:57:38.650Z,18.35
2022-08-26T22:00:09.357Z,19.42
2022-08-26T22:02:36.823Z,18.38
2022-08-26T22:05:04.037Z,17.40
2022-08-26T22:07:30.572Z,15.40
2022-08-26T22:09:57.005Z,15.68
2022-08-26T22:12:23.477Z,17.92
2022-08-26T22:14:49.949Z,16.33
2022-08-26T22:17:16.825Z,14.23
2022-08-26T22:19:46.456Z,18.10
2022-08-26T22:22:14.527Z,20.67
2022-08-26T22:24:43.144Z,15.85
2022-08-26T22:27:11.841Z,18.90
2022-08-26T22:29:38.489Z,22.35
2022-08-26T22:32:05.503Z,20.20
2022-08-26T22:34:33.893Z,17.95
2022-08-26T22:37:00.370Z,19.90
2022-08-26T22:39:26.847Z,17.65
2022-08-26T22:41:54.216Z,21.40
2022-08-26T22:44:22.328Z,18.73
2022-08-26T22:46:51.134Z,16.65
2022-08-26T22:49:17.749Z,18.70
2022-08-26T22:51:45.585Z,16.98
2022-08-26T22:54:13.097Z,22.55
2022-08-26T22:56:40.763Z,21.75
2022-08-26T22:59:08.088Z,21.05
2022-08-26T23:01:37.417Z,19.10
2022-08-26T23:04:06.210Z,19.77
2022-08-26T23:06:35.685Z,24.67
2022-08-26T23:09:02.147Z,31.80
2022-08-26T23:11:28.645Z,24.73
2022-08-26T23:13:55.164Z,21.50
2022-08-26T23:16:21.711Z,21.58
2022-08-26T23:18:48.241Z,23.00
2022-08-26T23:21:15.171Z,24.25
2022-08-26T23:23:41.740Z,19.92
2022-08-26T23:26:08.537Z,23.20
2022-08-26T23:28:37.723Z,22.17
2022-08-26T23:31:05.305Z,23.67
2022-08-26T23:33:50.168Z,24.15
2022-08-26T23:36:17.927Z,22.83
2022-08-26T23:38:45.279Z,22.80
2022-08-26T23:41:19.068Z,24.95
2022-08-26T23:43:45.545Z,26.23
2022-08-26T23:46:12.115Z,28.02
2022-08-26T23:48:38.720Z,28.55
2022-08-26T23:51:24.188Z,26.58
2022-08-26T23:53:51.423Z,23.75
2022-08-26T23:56:18.689Z,23.10
2022-08-26T23:58:47.092Z,24.08
